createdAt,value
2019-03-09T00:02:06.632Z,1.60
2019-03-09T00:05:11.721Z,1.80
2019-03-09T00:08:23.379Z,1.33
2019-03-09T00:11:28.864Z,1.60
2019-03-09T00:14:33.812Z,1.47
2019-03-09T00:17:39.084Z,1.90
2019-03-09T00:20:44.113Z,1.50
2019-03-09T00:24:07.951Z,1.87
2019-03-09T00:27:29.509Z,1.50
2019-03-09T00:30:41.394Z,1.63
2019-03-09T00:33:46.303Z,2.00
2019-03-09T00:36:51.175Z,1.60
2019-03-09T00:39:56.200Z,1.80
2019-03-09T00:43:04.997Z,1.40
2019-03-09T00:46:09.900Z,2.30
2019-03-09T00:49:18.816Z,2.10
2019-03-09T00:52:23.733Z,1.80
2019-03-09T00:55:28.750Z,1.60
2019-03-09T00:58:33.722Z,1.60
2019-03-09T01:01:41.976Z,2.17
2019-03-09T01:04:47.126Z,2.07
2019-03-09T01:07:52.087Z,1.70
2019-03-09T01:10:57.245Z,1.90
2019-03-09T01:14:02.339Z,1.77
2019-03-09T01:17:07.418Z,1.50
2019-03-09T01:20:14.303Z,2.60
2019-03-09T01:23:19.094Z,3.23
2019-03-09T01:26:23.807Z,2.90
2019-03-09T01:29:28.502Z,2.50
2019-03-09T01:32:33.238Z,2.73
2019-03-09T01:35:38.184Z,3.07
2019-03-09T01:38:43.058Z,3.80
2019-03-09T01:41:48.148Z,3.10
2019-03-09T01:44:53.440Z,3.23
2019-03-09T01:47:58.701Z,3.33
2019-03-09T01:51:03.596Z,4.97
2019-03-09T01:54:08.553Z,6.60
2019-03-09T01:57:13.733Z,3.00
2019-03-09T02:00:19.313Z,2.83
2019-03-09T02:03:24.286Z,2.63
2019-03-09T02:06:29.239Z,3.40
2019-03-09T02:09:34.204Z,2.83
2019-03-09T02:12:39.499Z,3.73
2019-03-09T02:15:44.636Z,3.20
2019-03-09T02:18:49.966Z,3.73
2019-03-09T02:21:54.995Z,3.70
2019-03-09T02:24:59.977Z,3.40
2019-03-09T02:28:05.116Z,4.60
2019-03-09T02:31:10.116Z,4.20
2019-03-09T02:34:15.226Z,4.80
2019-03-09T02:37:20.213Z,4.67
2019-03-09T02:40:26.361Z,5.70
2019-03-09T02:43:31.506Z,5.27
2019-03-09T02:46:36.437Z,3.80
2019-03-09T02:49:42.616Z,3.40
2019-03-09T02:52:47.517Z,4.70
2019-03-09T02:55:52.511Z,7.00
2019-03-09T02:58:57.474Z,4.87
2019-03-09T03:02:23.421Z,3.43
2019-03-09T03:05:28.598Z,2.40
2019-03-09T03:08:33.649Z,2.07
2019-03-09T03:11:42.898Z,1.87
2019-03-09T03:14:55.302Z,1.60
2019-03-09T03:18:00.298Z,1.30
2019-03-09T03:21:05.426Z,2.20
2019-03-09T03:24:19.488Z,3.13
2019-03-09T03:27:24.479Z,3.20
2019-03-09T03:30:29.575Z,3.27
2019-03-09T03:33:34.524Z,3.33
2019-03-09T03:36:39.504Z,3.80
2019-03-09T03:39:44.507Z,3.70
2019-03-09T03:42:49.432Z,2.97
2019-03-09T03:45:54.411Z,3.50
2019-03-09T03:48:59.298Z,3.50
2019-03-09T03:52:04.373Z,2.50
2019-03-09T03:55:09.448Z,2.10
2019-03-09T03:58:14.428Z,1.97
2019-03-09T04:01:19.338Z,2.00
2019-03-09T04:04:24.654Z,2.43
2019-03-09T04:07:29.917Z,1.77
2019-03-09T04:10:35.109Z,2.00
2019-03-09T04:13:40.197Z,2.43
2019-03-09T04:16:45.146Z,2.23
2019-03-09T04:19:50.241Z,2.87
2019-03-09T04:22:55.316Z,4.40
2019-03-09T04:26:00.895Z,5.00
2019-03-09T04:29:05.941Z,4.80
2019-03-09T04:32:11.177Z,4.87
2019-03-09T04:35:16.092Z,4.63
2019-03-09T04:38:22.888Z,4.73
2019-03-09T04:41:28.212Z,4.47
2019-03-09T04:44:33.150Z,4.90
2019-03-09T04:47:38.450Z,4.33
2019-03-09T04:50:43.375Z,4.60
2019-03-09T04:53:48.514Z,4.57
2019-03-09T04:56:53.529Z,4.57
2019-03-09T04:59:58.685Z,4.53
2019-03-09T05:03:03.741Z,4.87
2019-03-09T05:06:11.035Z,5.00
2019-03-09T05:09:50.057Z,5.00
2019-03-09T05:12:58.374Z,4.80
2019-03-09T05:16:03.520Z,4.93
2019-03-09T05:19:08.533Z,4.87
2019-03-09T05:22:13.944Z,5.20
2019-03-09T05:25:18.949Z,6.50
2019-03-09T05:28:24.248Z,5.43
2019-03-09T05:31:29.136Z,5.20
2019-03-09T05:34:34.164Z,5.70
2019-03-09T05:37:43.073Z,4.80
2019-03-09T05:40:46.076Z,5.20
2019-03-09T05:43:51.187Z,5.27
2019-03-09T05:46:56.338Z,4.60
2019-03-09T05:50:01.421Z,4.47
2019-03-09T05:53:11.682Z,4.10
2019-03-09T05:56:16.744Z,4.93
2019-03-09T05:59:21.846Z,5.60
2019-03-09T06:02:26.702Z,5.00
2019-03-09T06:05:42.306Z,5.10
2019-03-09T06:08:48.625Z,5.55
2019-03-09T06:11:53.685Z,5.90
2019-03-09T06:14:58.643Z,5.10
2019-03-09T06:18:03.446Z,5.50
2019-03-09T06:21:08.390Z,5.23
2019-03-09T06:24:13.410Z,5.60
2019-03-09T06:27:18.251Z,5.87
2019-03-09T06:30:23.220Z,5.50
2019-03-09T06:33:46.373Z,5.37
2019-03-09T06:37:03.372Z,6.17
2019-03-09T06:40:08.445Z,6.33
2019-03-09T06:43:13.537Z,4.93
2019-03-09T06:46:19.031Z,4.40
2019-03-09T06:49:24.028Z,4.27
2019-03-09T06:52:29.382Z,4.77
2019-03-09T06:55:34.610Z,4.10
2019-03-09T06:58:39.692Z,3.40
2019-03-09T07:01:44.723Z,4.47
2019-03-09T07:04:49.776Z,3.50
2019-03-09T07:07:54.823Z,4.50
2019-03-09T07:11:00.205Z,4.20
2019-03-09T07:14:40.924Z,4.03
2019-03-09T07:17:45.752Z,4.53
2019-03-09T07:20:51.007Z,3.37
2019-03-09T07:23:55.847Z,3.30
2019-03-09T07:27:00.922Z,3.20
2019-03-09T07:30:08.764Z,3.20
2019-03-09T07:33:13.840Z,3.60
2019-03-09T07:36:19.274Z,3.80
2019-03-09T07:39:24.541Z,3.73
2019-03-09T07:42:29.718Z,3.03
2019-03-09T07:45:34.958Z,3.70
2019-03-09T07:48:40.915Z,3.10
2019-03-09T07:51:46.509Z,3.10
2019-03-09T07:54:52.195Z,3.90
2019-03-09T07:58:05.020Z,2.90
2019-03-09T08:01:10.378Z,2.47
2019-03-09T08:04:15.642Z,2.43
2019-03-09T08:07:20.740Z,2.37
2019-03-09T08:10:26.932Z,2.23
2019-03-09T08:13:31.825Z,2.10
2019-03-09T08:16:36.782Z,2.27
2019-03-09T08:19:41.731Z,2.93
2019-03-09T08:22:48.966Z,3.33
2019-03-09T08:25:53.949Z,2.43
2019-03-09T08:28:58.766Z,2.57
2019-03-09T08:32:15.219Z,2.33
2019-03-09T08:35:20.970Z,2.30
2019-03-09T08:38:25.940Z,2.57
2019-03-09T08:41:31.090Z,2.40
2019-03-09T08:44:36.119Z,2.50
2019-03-09T08:47:51.225Z,2.50
2019-03-09T08:50:47.924Z,2.27
2019-03-09T08:53:59.730Z,2.53
2019-03-09T08:57:04.716Z,2.73
2019-03-09T09:00:13.876Z,2.60
2019-03-09T09:03:18.665Z,2.77
2019-03-09T09:06:23.648Z,4.90
2019-03-09T09:09:29.821Z,3.20
2019-03-09T09:12:34.989Z,2.87
2019-03-09T09:15:39.865Z,2.90
2019-03-09T09:18:44.773Z,2.70
2019-03-09T09:21:55.338Z,3.30
2019-03-09T09:25:00.418Z,3.17
2019-03-09T09:28:05.485Z,2.50
2019-03-09T09:31:11.005Z,3.17
2019-03-09T09:34:15.981Z,2.90
2019-03-09T09:37:21.120Z,2.90
2019-03-09T09:40:26.197Z,2.77
2019-03-09T09:43:31.101Z,3.40
2019-03-09T09:46:36.162Z,3.20
2019-03-09T09:49:41.457Z,3.23
2019-03-09T09:52:46.393Z,3.17
2019-03-09T09:55:51.392Z,3.40
2019-03-09T09:58:56.625Z,3.40
2019-03-09T10:02:02.108Z,3.70
2019-03-09T10:05:07.259Z,3.27
2019-03-09T10:08:12.236Z,3.40
2019-03-09T10:11:17.220Z,3.30
2019-03-09T10:14:22.330Z,3.43
2019-03-09T10:17:27.382Z,4.33
2019-03-09T10:20:32.661Z,3.63
2019-03-09T10:23:37.674Z,3.53
2019-03-09T10:26:42.838Z,3.17
2019-03-09T10:29:48.857Z,4.67
2019-03-09T10:32:53.788Z,3.30
2019-03-09T10:35:58.831Z,3.77
2019-03-09T10:39:05.533Z,3.80
2019-03-09T10:42:13.178Z,4.27
2019-03-09T10:45:18.360Z,4.10
2019-03-09T10:48:23.311Z,3.70
2019-03-09T10:51:32.094Z,3.93
2019-03-09T10:54:38.689Z,3.90
2019-03-09T10:57:44.525Z,3.77
2019-03-09T11:00:49.700Z,4.30
2019-03-09T11:03:59.877Z,4.10
2019-03-09T11:07:05.306Z,3.43
2019-03-09T11:10:10.464Z,3.00
2019-03-09T11:13:15.602Z,4.08
2019-03-09T11:16:20.696Z,4.40
2019-03-09T11:19:25.862Z,3.15
2019-03-09T11:22:34.955Z,3.97
2019-03-09T11:25:39.964Z,3.83
2019-03-09T11:28:45.059Z,3.70
2019-03-09T11:31:49.940Z,4.17
2019-03-09T11:34:55.077Z,4.27
2019-03-09T11:38:00.751Z,3.90
2019-03-09T11:41:18.774Z,3.70
2019-03-09T11:44:15.638Z,3.60
2019-03-09T11:47:20.864Z,4.03
2019-03-09T11:50:25.831Z,3.90
2019-03-09T11:53:30.880Z,4.00
2019-03-09T11:56:36.151Z,3.97
2019-03-09T11:59:41.138Z,3.87
2019-03-09T12:02:46.253Z,4.20
2019-03-09T12:05:53.110Z,4.33
2019-03-09T12:08:59.128Z,4.10
2019-03-09T12:12:05.181Z,4.13
2019-03-09T12:15:10.525Z,3.97
2019-03-09T12:18:15.504Z,3.50
2019-03-09T12:21:20.573Z,3.60
2019-03-09T12:24:25.592Z,3.87
2019-03-09T12:27:35.974Z,3.20
2019-03-09T12:30:41.030Z,3.93
2019-03-09T12:33:46.143Z,3.77
2019-03-09T12:36:51.526Z,3.60
2019-03-09T12:39:56.570Z,3.47
2019-03-09T12:43:01.721Z,3.63
2019-03-09T12:46:06.663Z,3.27
2019-03-09T12:49:11.969Z,3.73
2019-03-09T12:52:16.891Z,3.47
2019-03-09T12:55:21.921Z,3.97
2019-03-09T12:58:27.165Z,4.40
2019-03-09T13:01:32.401Z,3.53
2019-03-09T13:04:37.437Z,3.00
2019-03-09T13:07:43.030Z,2.70
2019-03-09T13:10:48.091Z,3.20
2019-03-09T13:13:53.321Z,2.93
2019-03-09T13:16:58.433Z,2.70
2019-03-09T13:20:03.520Z,2.63
2019-03-09T13:23:08.737Z,2.37
2019-03-09T13:26:13.695Z,2.27
2019-03-09T13:29:20.299Z,2.73
2019-03-09T13:32:25.499Z,2.30
2019-03-09T13:35:30.743Z,2.43
2019-03-09T13:38:35.627Z,1.90
2019-03-09T13:41:40.961Z,2.43
2019-03-09T13:44:46.203Z,2.10
2019-03-09T13:47:51.287Z,2.00
2019-03-09T13:51:02.409Z,5.07
2019-03-09T13:54:08.319Z,2.77
2019-03-09T13:57:14.077Z,3.30
2019-03-09T14:00:18.970Z,2.50
2019-03-09T14:03:24.023Z,2.33
2019-03-09T14:06:28.974Z,2.40
2019-03-09T14:09:34.005Z,2.67
2019-03-09T14:12:38.945Z,2.10
2019-03-09T14:15:44.099Z,2.17
2019-03-09T14:18:49.248Z,2.30
2019-03-09T14:21:54.382Z,4.73
2019-03-09T14:24:59.540Z,2.60
2019-03-09T14:28:04.535Z,2.03
2019-03-09T14:31:12.429Z,2.43
2019-03-09T14:34:19.262Z,2.37
2019-03-09T14:37:26.695Z,2.43
2019-03-09T14:40:31.759Z,2.23
2019-03-09T14:43:40.475Z,2.60
2019-03-09T14:46:45.367Z,3.10
2019-03-09T14:49:50.445Z,2.33
2019-03-09T14:52:55.688Z,2.70
2019-03-09T14:56:00.807Z,2.23
2019-03-09T14:59:05.881Z,4.23
2019-03-09T15:02:11.012Z,2.77
2019-03-09T15:05:17.218Z,2.97
2019-03-09T15:08:23.739Z,3.10
2019-03-09T15:11:28.882Z,3.37
2019-03-09T15:14:33.856Z,3.30
2019-03-09T15:17:38.922Z,3.30
2019-03-09T15:20:44.209Z,2.93
2019-03-09T15:23:51.744Z,3.20
2019-03-09T15:26:56.762Z,4.30
2019-03-09T15:30:01.767Z,3.37
2019-03-09T15:33:06.890Z,3.67
2019-03-09T15:36:11.807Z,3.30
2019-03-09T15:39:16.894Z,3.73
2019-03-09T15:42:22.436Z,3.37
2019-03-09T15:45:27.505Z,3.80
2019-03-09T15:48:32.648Z,4.50
2019-03-09T15:51:43.564Z,3.50
2019-03-09T15:54:48.607Z,6.20
2019-03-09T15:57:53.588Z,3.97
2019-03-09T16:00:58.763Z,3.40
2019-03-09T16:04:03.774Z,3.60
2019-03-09T16:07:09.154Z,3.17
2019-03-09T16:10:14.931Z,3.20
2019-03-09T16:13:19.866Z,3.70
2019-03-09T16:16:24.815Z,6.57
2019-03-09T16:19:30.074Z,4.50
2019-03-09T16:22:35.034Z,3.70
2019-03-09T16:25:40.024Z,3.10
2019-03-09T16:28:45.064Z,3.50
2019-03-09T16:31:49.887Z,3.10
2019-03-09T16:34:54.938Z,3.37
2019-03-09T16:38:00.043Z,3.40
2019-03-09T16:41:05.156Z,4.50
2019-03-09T16:44:10.362Z,3.77
2019-03-09T16:47:15.363Z,4.60
2019-03-09T16:50:23.530Z,4.33
2019-03-09T16:53:28.791Z,4.20
2019-03-09T16:56:33.705Z,5.33
2019-03-09T16:59:41.508Z,4.50
2019-03-09T17:02:46.740Z,3.80
2019-03-09T17:05:51.988Z,4.10
2019-03-09T17:08:57.109Z,4.87
2019-03-09T17:12:02.482Z,3.73
2019-03-09T17:15:07.836Z,4.17
2019-03-09T17:18:12.812Z,4.60
2019-03-09T17:21:17.759Z,5.27
2019-03-09T17:24:22.908Z,5.33
2019-03-09T17:27:27.858Z,5.57
2019-03-09T17:30:32.781Z,4.60
2019-03-09T17:33:38.135Z,4.50
2019-03-09T17:36:42.965Z,5.70
2019-03-09T17:39:48.120Z,6.13
2019-03-09T17:42:53.311Z,6.60
2019-03-09T17:45:58.321Z,5.23
2019-03-09T17:49:03.348Z,5.67
2019-03-09T17:52:08.254Z,5.20
2019-03-09T17:55:13.688Z,5.57
2019-03-09T17:58:18.591Z,6.37
2019-03-09T18:01:24.877Z,6.23
2019-03-09T18:04:29.942Z,6.97
2019-03-09T18:07:35.045Z,5.47
2019-03-09T18:10:46.393Z,5.90
2019-03-09T18:13:51.301Z,5.80
2019-03-09T18:16:56.485Z,6.70
2019-03-09T18:20:01.819Z,6.77
2019-03-09T18:23:07.005Z,6.47
2019-03-09T18:26:12.260Z,7.60
2019-03-09T18:29:17.319Z,7.93
2019-03-09T18:32:22.758Z,8.00
2019-03-09T18:35:27.973Z,8.33
2019-03-09T18:38:33.097Z,7.50
2019-03-09T18:41:38.451Z,7.70
2019-03-09T18:44:43.616Z,8.20
2019-03-09T18:47:48.674Z,7.60
2019-03-09T18:50:53.674Z,8.07
2019-03-09T18:53:58.738Z,8.80
2019-03-09T18:57:03.699Z,8.97
2019-03-09T19:00:10.258Z,9.53
2019-03-09T19:03:15.446Z,9.40
2019-03-09T19:06:20.333Z,9.10
2019-03-09T19:09:25.323Z,9.77
2019-03-09T19:12:30.661Z,8.90
2019-03-09T19:15:35.709Z,9.80
2019-03-09T19:18:40.669Z,9.40
2019-03-09T19:21:45.816Z,8.83
2019-03-09T19:24:50.798Z,9.80
2019-03-09T19:27:55.711Z,9.30
2019-03-09T19:31:00.866Z,10.03
2019-03-09T19:34:05.895Z,10.60
2019-03-09T19:37:12.711Z,9.33
2019-03-09T19:40:17.926Z,8.40
2019-03-09T19:43:22.821Z,8.00
2019-03-09T19:46:27.811Z,9.20
2019-03-09T19:49:36.176Z,8.60
2019-03-09T19:52:41.369Z,8.37
2019-03-09T19:55:46.325Z,8.90
2019-03-09T19:58:51.410Z,8.87
2019-03-09T20:01:56.414Z,9.07
2019-03-09T20:05:01.541Z,9.93
2019-03-09T20:08:06.360Z,10.13
2019-03-09T20:11:11.558Z,10.07
2019-03-09T20:14:16.995Z,10.30
2019-03-09T20:17:22.093Z,11.33
2019-03-09T20:20:28.504Z,11.00
2019-03-09T20:23:33.902Z,10.20
2019-03-09T20:26:38.945Z,10.00
2019-03-09T20:29:44.334Z,11.80
2019-03-09T20:32:49.583Z,9.67
2019-03-09T20:35:54.579Z,12.20
2019-03-09T20:38:59.712Z,12.40
2019-03-09T20:42:08.484Z,12.33
2019-03-09T20:45:14.894Z,12.33
2019-03-09T20:48:24.945Z,13.00
2019-03-09T20:51:30.153Z,11.00
2019-03-09T20:54:35.260Z,11.33
2019-03-09T20:57:41.837Z,12.80
2019-03-09T21:00:46.883Z,12.70
2019-03-09T21:03:51.865Z,11.40
2019-03-09T21:06:56.833Z,13.13
2019-03-09T21:10:01.826Z,12.07
2019-03-09T21:13:07.718Z,12.57
2019-03-09T21:16:12.612Z,11.30
2019-03-09T21:19:17.754Z,11.47
2019-03-09T21:22:22.931Z,11.10
2019-03-09T21:25:28.337Z,12.07
2019-03-09T21:28:33.170Z,11.70
2019-03-09T21:31:38.219Z,11.63
2019-03-09T21:34:43.528Z,12.10
2019-03-09T21:37:48.547Z,10.77
2019-03-09T21:40:55.456Z,10.23
2019-03-09T21:44:00.384Z,10.23
2019-03-09T21:47:05.991Z,10.20
2019-03-09T21:50:13.174Z,9.33
2019-03-09T21:53:19.178Z,12.03
2019-03-09T21:56:24.411Z,9.57
2019-03-09T21:59:29.394Z,10.50
2019-03-09T22:02:34.488Z,9.90
2019-03-09T22:05:39.719Z,10.43
2019-03-09T22:08:44.968Z,9.80
2019-03-09T22:11:50.029Z,13.00
2019-03-09T22:14:55.281Z,13.40
2019-03-09T22:18:00.355Z,11.20
2019-03-09T22:21:05.588Z,11.80
2019-03-09T22:24:10.701Z,9.77
2019-03-09T22:27:17.066Z,9.03
2019-03-09T22:30:21.963Z,8.63
2019-03-09T22:33:26.983Z,7.70
2019-03-09T22:36:32.081Z,7.70
2019-03-09T22:39:37.232Z,8.03
2019-03-09T22:42:42.267Z,9.83
2019-03-09T22:45:47.502Z,8.50
2019-03-09T22:48:52.440Z,9.00
2019-03-09T22:52:00.547Z,8.90
2019-03-09T22:55:05.639Z,8.23
2019-03-09T22:58:10.633Z,9.30
2019-03-09T23:01:16.333Z,9.47
2019-03-09T23:04:21.340Z,10.33
2019-03-09T23:07:26.607Z,10.43
2019-03-09T23:10:31.612Z,11.03
2019-03-09T23:13:36.653Z,9.97
2019-03-09T23:16:41.748Z,9.03
2019-03-09T23:19:46.736Z,10.40
2019-03-09T23:22:51.932Z,9.70
2019-03-09T23:26:01.001Z,10.10
2019-03-09T23:29:06.115Z,10.57
2019-03-09T23:32:11.175Z,9.77
2019-03-09T23:35:17.011Z,10.40
2019-03-09T23:38:22.343Z,10.43
2019-03-09T23:41:27.435Z,9.20
2019-03-09T23:44:32.373Z,9.27
2019-03-09T23:47:37.465Z,9.07
2019-03-09T23:50:42.479Z,8.77
2019-03-09T23:53:47.601Z,8.70
2019-03-09T23:56:52.851Z,9.03
2019-03-09T23:59:57.749Z,8.40
